Time;durP1;ratioP1;P1;durP2;ratioP2;P2;SDS_P1;SDS_P2;PMS_P1;PMS_P2;Temp;Humidity;BMP_temperature;BMP_pressure;BME280_temperature;BME280_humidity;BME280_pressure;Samples;Min_cycle;Max_cycle;Signal;HPM_P1;HPM_P2
2023/08/02 00:02:11;;;;;;;12.77;3.85;;;15.60;99.90;;;;;;5003051;28;20399;-64
2023/08/02 00:04:37;;;;;;;10.00;4.32;;;15.60;99.90;;;;;;5010055;28;20034;-64
2023/08/02 00:07:03;;;;;;;10.15;3.78;;;15.60;99.90;;;;;;5007905;28;20038;-64
2023/08/02 00:09:29;;;;;;;12.80;4.10;;;15.60;99.90;;;;;;5013868;28;20142;-64
2023/08/02 00:11:54;;;;;;;11.93;4.18;;;15.60;99.90;;;;;;5005450;28;20134;-63
2023/08/02 00:14:20;;;;;;;9.65;4.40;;;15.60;99.90;;;;;;5012333;28;20500;-64
2023/08/02 00:16:46;;;;;;;9.63;3.90;;;15.60;99.90;;;;;;5013470;28;20072;-64
2023/08/02 00:19:11;;;;;;;10.00;4.03;;;15.60;99.90;;;;;;5012931;28;20066;-64
2023/08/02 00:21:37;;;;;;;10.93;3.97;;;15.60;99.90;;;;;;5010686;28;20038;-64
2023/08/02 00:24:03;;;;;;;12.50;4.05;;;15.60;99.90;;;;;;5009989;28;20049;-65
2023/08/02 00:26:29;;;;;;;12.77;4.47;;;15.60;99.90;;;;;;4992382;28;20045;-64
2023/08/02 00:28:54;;;;;;;9.18;3.97;;;15.60;99.90;;;;;;5013574;28;20038;-63
2023/08/02 00:31:20;;;;;;;9.13;4.63;;;15.60;99.90;;;;;;5013565;28;20033;-64
2023/08/02 00:33:46;;;;;;;9.82;4.10;;;15.60;99.90;;;;;;5012681;28;20184;-64
2023/08/02 00:36:11;;;;;;;10.88;3.92;;;15.60;99.90;;;;;;5013162;28;20041;-64
2023/08/02 00:38:37;;;;;;;11.50;4.40;;;15.60;99.90;;;;;;4995736;28;20037;-64
2023/08/02 00:41:06;;;;;;;11.50;4.65;;;15.60;99.90;;;;;;5004842;28;20046;-64
2023/08/02 00:43:42;;;;;;;12.35;4.55;;;15.60;99.90;;;;;;5011388;28;20067;-64
2023/08/02 00:46:09;;;;;;;9.35;4.10;;;15.60;99.90;;;;;;5013016;28;20080;-64
2023/08/02 00:48:35;;;;;;;11.60;4.10;;;15.60;99.90;;;;;;5010810;28;20034;-64
2023/08/02 00:51:02;;;;;;;11.18;4.03;;;15.60;99.90;;;;;;5018096;28;20041;-64
2023/08/02 00:53:27;;;;;;;15.60;4.90;;;15.60;99.90;;;;;;5011359;28;20113;-64
2023/08/02 00:55:55;;;;;;;12.13;4.43;;;15.60;99.90;;;;;;5006835;28;20090;-64
2023/08/02 00:58:20;;;;;;;10.75;4.40;;;15.60;99.90;;;;;;5011286;28;20533;-64
2023/08/02 01:00:46;;;;;;;10.82;4.40;;;15.60;99.90;;;;;;5013485;28;20030;-64
2023/08/02 01:03:12;;;;;;;11.05;4.82;;;15.60;99.90;;;;;;5011935;28;20381;-64
2023/08/02 01:05:46;;;;;;;13.13;4.47;;;15.60;99.90;;;;;;5013132;28;20084;-63
2023/08/02 01:08:19;;;;;;;12.43;4.50;;;15.60;99.90;;;;;;5011170;28;20041;-64
2023/08/02 01:10:53;;;;;;;13.02;4.80;;;15.60;99.90;;;;;;4995449;28;20388;-64
2023/08/02 01:13:20;;;;;;;14.98;4.60;;;15.60;99.90;;;;;;5007900;28;20488;-64
2023/08/02 01:15:47;;;;;;;14.63;5.38;;;15.60;99.90;;;;;;5013159;28;20038;-64
2023/08/02 01:18:13;;;;;;;15.85;5.70;;;15.60;99.90;;;;;;5011751;28;20034;-63
2023/08/02 01:20:39;;;;;;;14.63;5.22;;;15.60;99.90;;;;;;5006488;28;20042;-64
2023/08/02 01:23:04;;;;;;;16.75;5.13;;;15.60;99.90;;;;;;5010601;28;20076;-64
2023/08/02 01:25:32;;;;;;;19.50;5.18;;;15.60;99.90;;;;;;5004962;28;20070;-64
2023/08/02 01:28:02;;;;;;;14.73;5.13;;;15.60;99.90;;;;;;5009391;28;20134;-64
2023/08/02 01:30:33;;;;;;;14.13;5.38;;;15.60;99.90;;;;;;5008718;28;20495;-64
2023/08/02 01:32:59;;;;;;;17.67;4.57;;;15.60;99.90;;;;;;5011279;28;20049;-64
2023/08/02 01:35:26;;;;;;;20.05;5.30;;;15.60;99.90;;;;;;5011880;28;20034;-64
2023/08/02 01:37:53;;;;;;;15.02;4.90;;;15.60;99.90;;;;;;4990842;28;20458;-64
2023/08/02 01:40:18;;;;;;;19.42;5.55;;;15.60;99.90;;;;;;5011284;28;20538;-64
2023/08/02 01:42:44;;;;;;;18.88;5.20;;;15.60;99.90;;;;;;5012394;28;20129;-64
2023/08/02 01:45:10;;;;;;;18.50;5.20;;;15.60;99.90;;;;;;5011914;28;20042;-64
2023/08/02 01:47:36;;;;;;;15.73;5.72;;;15.60;99.90;;;;;;5012462;28;20041;-64
2023/08/02 01:50:01;;;;;;;14.35;5.25;;;15.60;99.90;;;;;;5002391;28;20041;-64
2023/08/02 01:52:27;;;;;;;17.10;5.50;;;15.60;99.90;;;;;;5011935;28;20084;-64
2023/08/02 01:54:53;;;;;;;12.75;5.35;;;15.60;99.90;;;;;;5009255;28;20045;-64
2023/08/02 01:57:18;;;;;;;14.95;5.43;;;15.60;99.90;;;;;;5004676;28;20246;-64
2023/08/02 01:59:44;;;;;;;16.65;5.32;;;15.60;99.90;;;;;;5011072;28;20041;-65
2023/08/02 02:02:09;;;;;;;19.00;5.60;;;15.60;99.90;;;;;;5011315;28;20034;-64
2023/08/02 02:04:35;;;;;;;19.15;6.00;;;15.60;99.90;;;;;;5010710;28;20395;-64
2023/08/02 02:07:01;;;;;;;19.23;5.60;;;15.60;99.90;;;;;;5014877;28;20046;-64
2023/08/02 02:09:26;;;;;;;18.08;5.78;;;15.60;99.90;;;;;;5005064;28;20394;-64
2023/08/02 02:11:52;;;;;;;16.73;6.03;;;15.50;99.90;;;;;;5014163;28;20041;-64
2023/08/02 02:14:18;;;;;;;17.95;5.22;;;15.50;99.90;;;;;;5005968;28;20459;-64
2023/08/02 02:16:43;;;;;;;17.33;5.80;;;15.60;99.90;;;;;;5011517;28;20037;-64
2023/08/02 02:19:09;;;;;;;21.17;6.00;;;15.50;99.90;;;;;;5010844;28;20124;-64
2023/08/02 02:21:38;;;;;;;13.30;5.57;;;15.50;99.90;;;;;;5008673;28;20105;-64
2023/08/02 02:24:04;;;;;;;20.67;6.90;;;15.50;99.90;;;;;;5007469;28;20038;-64
2023/08/02 02:26:29;;;;;;;15.35;5.70;;;15.50;99.90;;;;;;5004105;28;20534;-64
2023/08/02 02:28:55;;;;;;;19.52;5.03;;;15.50;99.90;;;;;;5007727;28;20431;-64
2023/08/02 02:31:21;;;;;;;17.60;5.75;;;15.50;99.90;;;;;;5007504;28;20373;-64
2023/08/02 02:33:46;;;;;;;17.95;5.88;;;15.50;99.90;;;;;;5008526;28;20045;-63
2023/08/02 02:36:12;;;;;;;17.42;5.60;;;15.50;99.90;;;;;;5010763;28;20034;-63
2023/08/02 02:38:37;;;;;;;24.25;5.90;;;15.40;99.90;;;;;;5011286;28;20033;-64
2023/08/02 02:41:03;;;;;;;17.35;5.32;;;15.40;99.90;;;;;;5003550;28;20088;-64
2023/08/02 02:43:29;;;;;;;15.75;5.43;;;15.40;99.90;;;;;;5010442;28;20038;-64
2023/08/02 02:45:54;;;;;;;12.98;5.22;;;15.40;99.90;;;;;;5010985;28;20095;-64
2023/08/02 02:48:20;;;;;;;20.30;6.10;;;15.40;99.90;;;;;;5010810;28;20117;-65
2023/08/02 02:50:45;;;;;;;13.85;5.22;;;15.40;99.90;;;;;;5010469;28;20483;-65
2023/08/02 02:53:11;;;;;;;16.15;5.43;;;15.40;99.90;;;;;;5010644;28;20068;-64
2023/08/02 02:55:37;;;;;;;22.35;6.10;;;15.40;99.90;;;;;;5010913;28;20046;-64
2023/08/02 02:58:02;;;;;;;17.67;5.97;;;15.30;99.90;;;;;;5010025;28;20046;-64
2023/08/02 03:00:28;;;;;;;13.18;5.85;;;15.30;99.90;;;;;;5009589;28;20038;-64
2023/08/02 03:02:54;;;;;;;15.25;5.95;;;15.30;99.90;;;;;;5011033;28;20046;-64
2023/08/02 03:05:19;;;;;;;12.23;5.97;;;15.30;99.90;;;;;;5009992;28;20503;-64
2023/08/02 03:07:46;;;;;;;14.98;5.72;;;15.30;99.90;;;;;;5010957;28;20041;-64
2023/08/02 03:10:12;;;;;;;16.08;6.43;;;15.30;99.90;;;;;;5016149;28;20049;-64
2023/08/02 03:12:37;;;;;;;13.50;5.53;;;15.30;99.90;;;;;;5005269;28;20030;-63
2023/08/02 03:15:03;;;;;;;17.08;7.05;;;15.20;99.90;;;;;;5004697;28;20125;-64
2023/08/02 03:17:29;;;;;;;15.10;5.55;;;15.20;99.90;;;;;;5010451;28;20042;-64
2023/08/02 03:19:55;;;;;;;19.48;6.53;;;15.20;99.90;;;;;;5008015;28;20034;-64
2023/08/02 03:22:20;;;;;;;15.13;6.32;;;15.20;99.90;;;;;;5009833;28;20034;-64
2023/08/02 03:24:46;;;;;;;12.07;6.57;;;15.10;99.90;;;;;;5010262;28;20038;-64
2023/08/02 03:27:12;;;;;;;12.20;6.32;;;15.10;99.90;;;;;;5002683;28;20048;-64
2023/08/02 03:29:38;;;;;;;16.50;6.88;;;15.10;99.90;;;;;;5009597;28;20132;-64
2023/08/02 03:32:04;;;;;;;12.63;6.82;;;15.00;99.90;;;;;;4992388;28;20160;-64
2023/08/02 03:34:29;;;;;;;14.80;5.88;;;15.10;99.90;;;;;;5009800;28;20719;-64
2023/08/02 03:36:55;;;;;;;18.70;6.67;;;15.00;99.90;;;;;;5010347;28;20034;-64
2023/08/02 03:39:21;;;;;;;12.25;6.18;;;15.00;99.90;;;;;;5008588;28;20030;-64
2023/08/02 03:41:47;;;;;;;16.48;6.57;;;15.00;99.90;;;;;;4992228;28;20046;-64
2023/08/02 03:44:12;;;;;;;11.68;6.47;;;15.00;99.90;;;;;;4991762;28;20038;-64
2023/08/02 03:46:38;;;;;;;16.95;6.68;;;15.00;99.90;;;;;;4995050;28;20144;-64
2023/08/02 03:49:04;;;;;;;15.55;6.60;;;14.90;99.90;;;;;;5008717;28;20121;-64
2023/08/02 03:51:29;;;;;;;20.17;6.93;;;15.00;99.90;;;;;;5010036;28;20111;-64
2023/08/02 03:53:55;;;;;;;14.52;6.63;;;14.90;99.90;;;;;;5009860;28;20371;-64
2023/08/02 03:56:21;;;;;;;19.27;6.38;;;15.00;99.90;;;;;;5014616;28;20092;-64
2023/08/02 03:58:46;;;;;;;17.02;6.72;;;14.90;99.90;;;;;;5002842;28;20103;-64
2023/08/02 04:01:12;;;;;;;14.45;6.20;;;14.90;99.90;;;;;;5009510;28;20042;-64
2023/08/02 04:03:37;;;;;;;17.58;6.22;;;14.90;99.90;;;;;;5002606;28;20057;-64
2023/08/02 04:06:03;;;;;;;18.83;7.00;;;14.90;99.90;;;;;;5009862;28;20034;-64
2023/08/02 04:08:29;;;;;;;13.18;5.82;;;14.90;99.90;;;;;;4991117;28;20049;-64
2023/08/02 04:10:54;;;;;;;16.38;6.32;;;14.90;99.90;;;;;;4991033;28;20120;-64
2023/08/02 04:13:20;;;;;;;14.55;6.28;;;14.90;99.90;;;;;;5008772;28;20109;-64
2023/08/02 04:15:45;;;;;;;17.45;7.55;;;14.90;99.90;;;;;;5009776;28;20045;-64
2023/08/02 04:18:11;;;;;;;13.82;6.68;;;14.90;99.90;;;;;;5003093;28;20046;-64
2023/08/02 04:20:40;;;;;;;14.02;6.85;;;14.90;99.90;;;;;;5009429;28;20033;-65
2023/08/02 04:23:06;;;;;;;11.90;6.57;;;14.90;99.90;;;;;;5006213;28;20040;-64
2023/08/02 04:25:32;;;;;;;14.52;6.20;;;14.90;99.90;;;;;;5004544;28;20030;-65
2023/08/02 04:27:57;;;;;;;18.70;6.43;;;14.90;99.90;;;;;;5003446;28;20042;-64
2023/08/02 04:30:23;;;;;;;15.20;6.70;;;14.90;99.90;;;;;;5006696;28;20069;-64
2023/08/02 04:32:50;;;;;;;13.77;6.38;;;14.90;99.90;;;;;;5011020;28;20697;-64
2023/08/02 04:35:16;;;;;;;18.25;6.60;;;14.90;99.90;;;;;;5000184;28;20061;-64
2023/08/02 04:37:42;;;;;;;17.48;6.68;;;14.90;99.90;;;;;;5000042;28;20403;-64
2023/08/02 04:40:08;;;;;;;15.85;6.47;;;14.90;99.90;;;;;;5009645;28;20040;-64
2023/08/02 04:42:33;;;;;;;15.07;6.38;;;14.90;99.90;;;;;;4990707;28;20503;-64
2023/08/02 04:44:59;;;;;;;17.50;6.70;;;14.90;99.90;;;;;;5006130;28;20057;-64
2023/08/02 04:47:25;;;;;;;12.70;5.97;;;14.90;99.90;;;;;;5008723;28;20080;-64
2023/08/02 04:49:50;;;;;;;11.55;6.32;;;14.90;99.90;;;;;;5005391;28;20041;-64
2023/08/02 04:52:16;;;;;;;11.55;6.18;;;14.90;99.90;;;;;;4999063;28;20038;-64
2023/08/02 04:54:41;;;;;;;14.05;6.30;;;14.90;99.90;;;;;;5011652;28;20042;-64
2023/08/02 04:57:07;;;;;;;13.00;6.25;;;15.00;99.90;;;;;;5010038;28;20115;-64
2023/08/02 04:59:33;;;;;;;14.43;6.50;;;15.00;99.90;;;;;;5012944;28;20042;-64
2023/08/02 05:01:58;;;;;;;13.80;6.18;;;15.00;99.90;;;;;;5005589;28;20042;-64
2023/08/02 05:04:24;;;;;;;15.10;5.78;;;15.00;99.90;;;;;;5003098;28;20427;-64
2023/08/02 05:06:49;;;;;;;11.75;6.13;;;15.00;99.90;;;;;;5012513;28;20073;-64
2023/08/02 05:09:15;;;;;;;12.32;5.60;;;15.00;99.90;;;;;;5012857;28;20038;-64
2023/08/02 05:11:41;;;;;;;17.00;6.35;;;15.10;99.90;;;;;;5011545;28;20408;-64
2023/08/02 05:14:06;;;;;;;13.32;5.57;;;15.10;99.90;;;;;;4992554;28;20052;-64
2023/08/02 05:16:32;;;;;;;10.43;5.90;;;15.10;99.90;;;;;;5012828;28;20034;-64
2023/08/02 05:18:57;;;;;;;13.23;5.85;;;15.10;99.90;;;;;;4994817;28;20053;-64
2023/08/02 05:21:23;;;;;;;10.40;5.70;;;15.10;99.90;;;;;;5013236;28;20056;-63
2023/08/02 05:23:49;;;;;;;11.63;5.90;;;15.10;99.90;;;;;;5010602;28;20118;-64
2023/08/02 05:26:15;;;;;;;11.48;6.10;;;15.10;99.90;;;;;;5011929;28;20041;-64
2023/08/02 05:28:41;;;;;;;10.00;5.60;;;15.20;99.90;;;;;;4994632;28;20048;-64
2023/08/02 05:31:13;;;;;;;14.32;5.75;;;15.20;99.90;;;;;;5012389;28;20518;-65
2023/08/02 05:33:40;;;;;;;12.27;5.60;;;15.20;99.90;;;;;;5000732;28;20046;-64
2023/08/02 05:36:06;;;;;;;9.40;5.05;;;15.30;99.90;;;;;;4999314;28;20042;-64
2023/08/02 05:38:35;;;;;;;11.68;6.10;;;15.30;99.90;;;;;;4997927;28;20030;-64
2023/08/02 05:41:04;;;;;;;10.68;5.53;;;15.40;99.90;;;;;;4989706;28;20053;-64
2023/08/02 05:43:30;;;;;;;14.50;5.85;;;15.40;99.90;;;;;;5000365;28;20037;-63
2023/08/02 05:45:56;;;;;;;15.45;6.20;;;15.40;99.90;;;;;;4999298;28;20049;-63
2023/08/02 05:48:22;;;;;;;12.95;5.60;;;15.50;99.90;;;;;;5000842;28;20033;-63
2023/08/02 05:50:48;;;;;;;10.02;5.47;;;15.50;99.90;;;;;;4996785;28;20057;-65
2023/08/02 05:53:13;;;;;;;12.20;5.75;;;15.60;99.90;;;;;;5001259;28;20096;-63
2023/08/02 05:55:40;;;;;;;10.60;5.90;;;15.60;99.90;;;;;;4997019;28;20038;-63
2023/08/02 05:58:06;;;;;;;13.13;5.60;;;15.60;99.90;;;;;;4981184;28;20380;-66
2023/08/02 06:00:31;;;;;;;12.63;6.00;;;15.70;99.90;;;;;;4999118;28;20040;-63
2023/08/02 06:02:57;;;;;;;12.07;5.95;;;15.70;99.90;;;;;;4997120;28;20030;-63
2023/08/02 06:05:23;;;;;;;10.10;5.78;;;15.80;99.90;;;;;;5005081;28;20423;-63
2023/08/02 06:07:48;;;;;;;9.88;5.53;;;15.80;99.90;;;;;;5011559;28;20052;-63
2023/08/02 06:10:14;;;;;;;12.48;5.78;;;15.80;99.90;;;;;;5011130;28;20115;-66
2023/08/02 06:12:40;;;;;;;11.48;5.28;;;15.90;99.90;;;;;;5011771;28;20164;-65
2023/08/02 06:15:06;;;;;;;13.32;5.93;;;15.90;99.90;;;;;;5007695;28;20042;-62
2023/08/02 06:17:32;;;;;;;9.50;5.30;;;15.90;99.90;;;;;;5005121;28;20034;-63
2023/08/02 06:19:58;;;;;;;12.18;5.57;;;16.00;99.90;;;;;;4994299;28;20049;-64
2023/08/02 06:22:24;;;;;;;12.25;4.80;;;16.00;99.90;;;;;;5007274;28;20069;-62
2023/08/02 06:24:49;;;;;;;12.82;5.22;;;16.00;99.90;;;;;;5004862;28;20124;-63
2023/08/02 06:27:15;;;;;;;12.32;4.95;;;16.00;99.90;;;;;;5005741;28;20080;-63
2023/08/02 06:29:40;;;;;;;10.48;4.70;;;16.00;99.90;;;;;;5004939;28;20037;-66
2023/08/02 06:32:06;;;;;;;10.07;4.50;;;16.00;99.90;;;;;;4991486;28;20037;-63
2023/08/02 06:34:32;;;;;;;8.38;4.90;;;16.00;99.90;;;;;;4997792;28;20100;-63
2023/08/02 06:36:58;;;;;;;8.95;4.93;;;16.00;99.90;;;;;;5011161;28;20467;-66
2023/08/02 06:39:24;;;;;;;8.93;4.40;;;16.00;99.90;;;;;;5003794;28;20046;-62
2023/08/02 06:41:49;;;;;;;9.70;4.43;;;16.00;99.90;;;;;;4993581;28;20046;-63
2023/08/02 06:44:15;;;;;;;11.15;4.38;;;16.00;99.90;;;;;;5009708;28;20030;-65
2023/08/02 06:46:41;;;;;;;9.02;4.63;;;16.00;99.90;;;;;;5010761;28;20033;-63
2023/08/02 06:49:07;;;;;;;8.43;4.15;;;16.00;99.90;;;;;;5011313;28;20133;-62
2023/08/02 06:51:32;;;;;;;10.15;4.65;;;16.00;99.90;;;;;;4987372;28;20548;-63
2023/08/02 06:53:58;;;;;;;9.98;4.68;;;16.00;99.90;;;;;;4992723;28;20491;-64
2023/08/02 06:56:24;;;;;;;10.63;4.80;;;16.00;99.90;;;;;;5009814;28;20038;-62
2023/08/02 06:58:50;;;;;;;12.82;4.63;;;16.00;99.90;;;;;;5011110;28;20045;-63
2023/08/02 07:01:18;;;;;;;11.57;4.85;;;16.00;99.90;;;;;;5010292;28;20038;-64
2023/08/02 07:03:44;;;;;;;10.82;4.70;;;16.00;99.90;;;;;;5010749;28;20046;-63
2023/08/02 07:06:11;;;;;;;10.10;4.20;;;15.90;99.90;;;;;;5011062;28;20038;-63
2023/08/02 07:08:38;;;;;;;10.27;4.50;;;15.90;99.90;;;;;;5009482;28;20053;-63
2023/08/02 07:11:04;;;;;;;9.07;4.30;;;15.90;99.90;;;;;;5010044;28;20049;-65
2023/08/02 07:13:33;;;;;;;9.40;4.88;;;15.90;99.90;;;;;;5010201;28;20492;-65
2023/08/02 07:15:59;;;;;;;10.65;5.00;;;15.90;99.90;;;;;;5009569;28;20133;-63
2023/08/02 07:18:26;;;;;;;11.98;4.40;;;15.90;99.90;;;;;;5004635;28;20038;-64
2023/08/02 07:20:51;;;;;;;11.38;4.80;;;15.90;99.90;;;;;;4993364;28;20092;-63
2023/08/02 07:23:18;;;;;;;11.55;5.30;;;15.90;99.90;;;;;;5010268;28;20499;-64
2023/08/02 07:25:43;;;;;;;12.27;4.90;;;15.90;99.90;;;;;;5010118;28;20045;-63
2023/08/02 07:28:09;;;;;;;11.85;5.00;;;15.90;99.90;;;;;;5009560;28;20377;-63
2023/08/02 07:30:35;;;;;;;12.05;4.88;;;15.90;99.90;;;;;;4992324;28;20037;-64
2023/08/02 07:33:00;;;;;;;10.75;4.43;;;15.80;99.90;;;;;;5010280;28;20045;-66
2023/08/02 07:35:26;;;;;;;11.32;5.15;;;15.80;99.90;;;;;;4990398;28;20042;-64
2023/08/02 07:37:51;;;;;;;9.50;4.30;;;15.80;99.90;;;;;;4976151;28;20081;-64
2023/08/02 07:40:17;;;;;;;11.93;4.93;;;15.80;99.90;;;;;;5010029;28;20049;-64
2023/08/02 07:42:43;;;;;;;11.98;4.80;;;15.80;99.90;;;;;;5010082;28;20519;-64
2023/08/02 07:45:10;;;;;;;9.50;4.88;;;15.80;99.90;;;;;;5000461;28;20039;-63
2023/08/02 07:47:37;;;;;;;10.35;4.93;;;15.80;99.90;;;;;;5009414;28;20080;-63
2023/08/02 07:50:04;;;;;;;12.70;5.20;;;15.70;99.90;;;;;;5009963;28;20120;-64
2023/08/02 07:52:31;;;;;;;11.13;4.97;;;15.70;99.90;;;;;;4993046;28;20400;-63
2023/08/02 07:54:57;;;;;;;12.20;4.68;;;15.70;99.90;;;;;;5009408;28;20066;-63
2023/08/02 07:57:25;;;;;;;12.35;4.45;;;15.70;99.90;;;;;;5009409;28;21975;-63
2023/08/02 07:59:52;;;;;;;8.32;4.55;;;15.70;99.90;;;;;;5010133;28;20464;-63
2023/08/02 08:02:18;;;;;;;12.30;4.88;;;15.70;99.90;;;;;;5010022;28;20038;-63
2023/08/02 08:04:44;;;;;;;8.88;4.50;;;15.70;99.90;;;;;;4992219;28;20057;-63
2023/08/02 08:07:10;;;;;;;10.00;4.63;;;15.70;99.90;;;;;;5009248;28;20038;-64
2023/08/02 08:09:36;;;;;;;11.85;4.20;;;15.70;99.90;;;;;;5009667;28;20092;-64
2023/08/02 08:12:05;;;;;;;11.98;4.90;;;15.70;99.90;;;;;;4991588;28;20089;-66
2023/08/02 08:14:32;;;;;;;9.85;4.28;;;15.70;99.90;;;;;;5009757;28;20554;-63
2023/08/02 08:16:59;;;;;;;11.00;4.68;;;15.80;99.90;;;;;;5009022;28;20042;-64
2023/08/02 08:19:26;;;;;;;9.50;4.93;;;15.80;99.90;;;;;;5009966;28;20518;-63
2023/08/02 08:21:52;;;;;;;10.25;4.40;;;15.80;99.90;;;;;;5009686;28;20500;-65
2023/08/02 08:24:18;;;;;;;9.82;4.88;;;15.90;99.90;;;;;;5009272;28;20955;-63
2023/08/02 08:26:44;;;;;;;13.80;5.38;;;15.90;99.90;;;;;;5010187;28;20041;-65
2023/08/02 08:29:09;;;;;;;11.35;5.80;;;15.90;99.90;;;;;;4992403;28;20507;-63
2023/08/02 08:31:36;;;;;;;11.32;5.10;;;16.00;99.90;;;;;;5006809;28;20088;-63
2023/08/02 08:34:02;;;;;;;10.88;5.20;;;16.10;99.90;;;;;;5010301;28;20040;-63
2023/08/02 08:36:31;;;;;;;10.27;5.32;;;16.10;99.90;;;;;;5012861;28;20034;-65
2023/08/02 08:38:57;;;;;;;11.35;5.55;;;16.20;99.90;;;;;;5013236;28;20038;-63
2023/08/02 08:41:23;;;;;;;12.95;5.38;;;16.20;99.90;;;;;;4992960;28;20396;-63
2023/08/02 08:43:49;;;;;;;8.82;5.20;;;16.20;99.90;;;;;;5005422;28;20034;-64
2023/08/02 08:46:15;;;;;;;10.32;5.65;;;16.20;99.90;;;;;;5012959;28;20041;-64
2023/08/02 08:48:41;;;;;;;10.25;5.53;;;16.20;99.90;;;;;;4996105;28;20042;-64
2023/08/02 08:51:10;;;;;;;11.65;5.75;;;16.20;99.90;;;;;;5013174;28;20057;-64
2023/08/02 08:53:36;;;;;;;11.32;5.78;;;16.20;99.90;;;;;;5012166;28;20113;-64
2023/08/02 08:56:04;;;;;;;9.50;5.60;;;16.20;99.90;;;;;;5013112;28;20455;-65
2023/08/02 08:58:34;;;;;;;13.45;5.70;;;16.20;99.90;;;;;;4995639;28;20401;-64
2023/08/02 09:01:03;;;;;;;12.60;5.97;;;16.10;99.90;;;;;;4996040;28;20108;-64
2023/08/02 09:03:29;;;;;;;10.93;6.03;;;16.10;99.90;;;;;;5011807;28;20494;-65
2023/08/02 09:06:03;;;;;;;11.48;6.35;;;16.10;99.90;;;;;;5012744;28;20077;-65
2023/08/02 09:08:39;;;;;;;12.30;6.65;;;16.10;99.90;;;;;;5007230;28;20047;-64
2023/08/02 09:11:05;;;;;;;10.68;6.55;;;16.10;99.90;;;;;;4996226;28;20583;-66
2023/08/02 09:13:31;;;;;;;10.45;6.40;;;16.10;99.90;;;;;;4997228;28;20113;-64
2023/08/02 09:16:08;;;;;;;11.82;6.10;;;16.20;99.90;;;;;;4987526;28;20060;-68
2023/08/02 09:18:38;;;;;;;9.52;6.68;;;16.30;99.90;;;;;;4984990;28;20049;-64
2023/08/02 09:21:05;;;;;;;12.65;6.43;;;16.30;99.90;;;;;;5005137;28;20045;-67
2023/08/02 09:23:30;;;;;;;9.82;6.03;;;16.30;99.90;;;;;;4998121;28;20037;-65
2023/08/02 09:26:14;;;;;;;12.35;6.63;;;16.40;99.90;;;;;;4991570;28;20042;-66
2023/08/02 09:28:39;;;;;;;11.10;5.82;;;16.40;99.90;;;;;;5014486;28;20045;-64
2023/08/02 09:31:17;;;;;;;12.07;5.65;;;16.40;99.90;;;;;;5000271;28;20435;-66
2023/08/02 09:33:51;;;;;;;8.25;5.18;;;16.50;99.90;;;;;;4992213;28;20189;-64
2023/08/02 09:36:31;;;;;;;9.80;5.07;;;16.50;99.90;;;;;;5000256;28;20034;-64
2023/08/02 09:39:01;;;;;;;9.00;5.32;;;16.50;99.90;;;;;;5006216;28;20096;-64
2023/08/02 09:41:28;;;;;;;9.23;5.20;;;16.50;99.90;;;;;;4997424;28;20030;-64
2023/08/02 09:43:55;;;;;;;10.90;5.40;;;16.50;99.90;;;;;;4982652;28;20087;-65
2023/08/02 09:46:35;;;;;;;7.10;5.05;;;16.50;99.90;;;;;;5000844;28;20296;-65
2023/08/02 09:49:21;;;;;;;7.05;4.55;;;16.60;99.90;;;;;;5004025;28;20409;-67
2023/08/02 09:51:47;;;;;;;6.28;4.47;;;16.50;99.90;;;;;;4984699;28;20571;-65
2023/08/02 09:54:14;;;;;;;7.05;4.25;;;16.60;99.90;;;;;;5006516;28;20128;-67
2023/08/02 09:56:41;;;;;;;5.43;4.05;;;16.60;99.90;;;;;;4989555;28;20116;-65
2023/08/02 09:59:08;;;;;;;5.57;4.00;;;16.60;99.90;;;;;;5005545;28;20042;-65
2023/08/02 10:01:35;;;;;;;8.15;4.45;;;16.60;99.90;;;;;;5006766;28;20046;-64
2023/08/02 10:04:09;;;;;;;5.13;3.72;;;16.60;99.90;;;;;;4988222;28;20073;-67
2023/08/02 10:06:45;;;;;;;4.93;3.60;;;16.60;99.90;;;;;;4988949;28;20064;-67
2023/08/02 10:09:14;;;;;;;6.05;3.70;;;16.60;99.90;;;;;;4977185;28;20109;-66
2023/08/02 10:12:08;;;;;;;5.47;3.20;;;16.70;99.90;;;;;;5007724;28;20046;-66
2023/08/02 10:14:35;;;;;;;4.65;3.25;;;16.70;99.90;;;;;;4981161;28;20392;-64
2023/08/02 10:17:02;;;;;;;5.13;3.28;;;16.80;99.90;;;;;;4984383;28;20049;-65
2023/08/02 10:19:29;;;;;;;4.55;2.95;;;16.90;99.90;;;;;;4986395;28;20034;-64
2023/08/02 10:21:57;;;;;;;5.07;2.60;;;16.90;99.90;;;;;;5004811;28;20030;-64
2023/08/02 10:24:27;;;;;;;4.45;2.80;;;17.00;99.90;;;;;;5006124;28;20356;-65
2023/08/02 10:27:04;;;;;;;3.83;2.80;;;17.10;99.90;;;;;;4996255;28;20563;-65
2023/08/02 10:29:33;;;;;;;5.70;2.97;;;17.10;99.90;;;;;;4985850;28;20543;-65
2023/08/02 10:32:10;;;;;;;4.95;2.83;;;17.00;99.90;;;;;;4986871;28;20472;-64
2023/08/02 10:34:36;;;;;;;4.95;2.60;;;17.00;99.90;;;;;;4983226;28;20377;-64
2023/08/02 10:37:02;;;;;;;4.68;2.67;;;17.00;99.90;;;;;;5005130;28;20060;-66
2023/08/02 10:39:50;;;;;;;4.38;2.50;;;17.00;99.90;;;;;;4984842;28;20539;-66
2023/08/02 10:42:31;;;;;;;3.03;2.50;;;17.00;99.90;;;;;;4966138;28;20051;-64
2023/08/02 10:44:57;;;;;;;3.60;2.60;;;17.00;99.90;;;;;;4983861;28;20053;-64
2023/08/02 10:47:28;;;;;;;4.95;2.53;;;17.00;99.90;;;;;;4986577;28;20045;-64
2023/08/02 10:49:55;;;;;;;3.50;2.33;;;17.00;99.90;;;;;;5004464;28;20050;-65
2023/08/02 10:52:41;;;;;;;5.47;2.45;;;17.00;99.90;;;;;;4988045;28;20041;-67
2023/08/02 10:55:17;;;;;;;4.13;2.22;;;17.00;99.90;;;;;;5003292;28;20064;-64
2023/08/02 10:57:55;;;;;;;2.53;2.10;;;17.00;99.90;;;;;;5003716;28;20076;-65
2023/08/02 11:00:25;;;;;;;2.65;2.10;;;17.00;99.90;;;;;;4986105;28;20038;-64
2023/08/02 11:02:53;;;;;;;3.90;2.38;;;17.00;99.90;;;;;;5004580;28;20037;-64
2023/08/02 11:05:37;;;;;;;4.13;2.50;;;17.00;99.90;;;;;;5004222;28;20491;-65
2023/08/02 11:08:03;;;;;;;3.10;2.65;;;17.00;99.90;;;;;;4982791;28;20045;-65
2023/08/02 11:10:28;;;;;;;3.88;2.50;;;17.10;99.90;;;;;;4987032;28;20435;-67
2023/08/02 11:12:55;;;;;;;3.08;2.72;;;17.20;99.90;;;;;;5005138;28;20487;-63
2023/08/02 11:15:22;;;;;;;3.25;2.67;;;17.30;99.90;;;;;;5002596;28;20096;-65
2023/08/02 11:17:56;;;;;;;4.57;2.92;;;17.50;99.90;;;;;;4986719;28;20041;-64
2023/08/02 11:20:31;;;;;;;4.00;2.70;;;17.70;99.90;;;;;;4986525;28;20053;-65
2023/08/02 11:22:58;;;;;;;2.70;2.50;;;17.90;99.90;;;;;;4995663;28;20034;-64
2023/08/02 11:25:24;;;;;;;5.05;2.70;;;18.10;99.90;;;;;;4979082;28;20120;-66
2023/08/02 11:28:02;;;;;;;3.10;2.72;;;18.40;99.90;;;;;;5002215;28;20104;-64
2023/08/02 11:30:28;;;;;;;3.63;2.67;;;18.70;99.90;;;;;;4979943;28;20048;-64
2023/08/02 11:32:53;;;;;;;4.00;2.80;;;18.90;99.90;;;;;;4991293;28;20045;-63
2023/08/02 11:35:20;;;;;;;5.72;2.65;;;19.20;99.90;;;;;;5005790;28;20092;-66
2023/08/02 11:37:46;;;;;;;4.65;2.80;;;19.30;99.90;;;;;;5004477;28;20037;-67
2023/08/02 11:40:12;;;;;;;5.22;3.28;;;19.40;99.90;;;;;;4987600;28;20096;-62
2023/08/02 11:42:50;;;;;;;3.50;3.20;;;19.40;99.90;;;;;;4998922;28;20046;-62
2023/08/02 11:45:34;;;;;;;3.78;3.00;;;19.50;99.90;;;;;;4985872;28;20038;-63
2023/08/02 11:48:00;;;;;;;3.65;3.10;;;19.50;99.90;;;;;;5034522;22;20128;-80
2023/08/02 11:50:27;;;;;;;4.32;3.30;;;19.60;99.90;;;;;;4994739;28;20033;-80
2023/08/02 11:53:06;;;;;;;4.05;3.60;;;19.70;99.90;;;;;;4985298;28;20125;-80
2023/08/02 11:55:35;;;;;;;3.53;3.22;;;19.90;99.90;;;;;;4985205;28;20123;-80
2023/08/02 11:58:05;;;;;;;4.07;3.67;;;20.10;99.90;;;;;;5002528;28;20041;-80
2023/08/02 12:00:33;;;;;;;4.70;3.50;;;20.30;99.90;;;;;;5002975;28;20044;-80
2023/08/02 12:03:13;;;;;;;3.95;3.53;;;20.50;99.90;;;;;;4993909;28;20133;-80
2023/08/02 12:05:40;;;;;;;3.58;3.28;;;20.60;99.90;;;;;;5000460;28;20199;-79
2023/08/02 12:08:17;;;;;;;3.75;3.35;;;20.70;99.90;;;;;;5010979;28;20475;-79
2023/08/02 12:10:43;;;;;;;3.60;3.28;;;20.90;99.90;;;;;;5000894;28;20054;-79
2023/08/02 12:13:14;;;;;;;3.85;3.33;;;21.00;99.90;;;;;;5002523;28;20048;-79
2023/08/02 12:16:04;;;;;;;5.05;3.67;;;21.20;99.90;;;;;;4994730;28;20042;-79
2023/08/02 12:18:30;;;;;;;3.97;3.17;;;21.30;99.90;;;;;;4993175;28;20112;-79
2023/08/02 12:20:56;;;;;;;4.57;3.80;;;21.40;99.90;;;;;;5016768;28;20037;-79
2023/08/02 12:23:32;;;;;;;4.18;3.25;;;21.50;99.90;;;;;;4997109;28;20045;-79
2023/08/02 12:25:58;;;;;;;3.35;2.75;;;21.60;99.90;;;;;;4996887;28;20030;-80
2023/08/02 12:28:24;;;;;;;;;;;21.70;99.90;;;;;;4993978;28;20112;-79
2023/08/02 12:31:00;;;;;;;4.00;3.03;;;21.80;99.90;;;;;;4997047;28;19989;-79
2023/08/02 12:33:26;;;;;;;4.53;2.80;;;21.80;99.90;;;;;;4996237;28;20037;-79
2023/08/02 12:35:51;;;;;;;4.22;3.20;;;21.90;99.90;;;;;;4997646;28;20461;-79
2023/08/02 12:38:17;;;;;;;3.70;2.70;;;22.00;99.90;;;;;;5005089;28;20744;-79
2023/08/02 12:40:43;;;;;;;3.42;2.97;;;21.90;99.90;;;;;;5024749;28;20501;-79
2023/08/02 12:43:08;;;;;;;3.30;2.70;;;22.00;99.90;;;;;;4996806;28;20557;-79